Aérodrome :
LOGIN :

S'inscrire | Disclaimer

   EN    FR    IT 

 










Légende :    VFR   VFR Marginal   IFR   IFR Intensif   IFR Très Intensif
Visi : 
Plafond : 
>= 8 km
>= 3000ft
5 à 8 km
1000 à 3000 ft
1500m à 5 km
500 à 1000 ft
800 à 1500m
200 à 500 ft
< 800m
< 200 ft
Symboles :   Orages  Brouillard  Fortes neiges  Fortes précipitations  Vent > 20 kt
SIGMETs :   Divers  Orages  Givrage  Turbulence  Onde Orograph.  Cendres Volcan.






- Altitude de l'aérodrome : 341 ft


EPMO - Modlin

DERNIER METAR :
  • 241630Z 25010KT CAVOK 06/02 Q1023

METARs EXPIRÉS :
  • 241600Z 24012KT CAVOK 07/02 Q1023
  • 241530Z 24012KT CAVOK 07/02 Q1023
  • 241500Z 24011KT CAVOK 06/02 Q1024
  • 241430Z 24009KT CAVOK 07/03 Q1024
  • 241400Z 24011KT CAVOK 07/03 Q1024

TAF TAF EPMO
Valide du 24 à 12h jusqu'au 25 à 12h UTC


241130Z 2412/2512 27012KT 9999 BKN020
BECMG 2414/2417 21007KT
PROB40 2500/2507 3000 BR



MET'MAP, la Météo Aéronautique d'un coup d'oeil ! - Copyright ORBIFLY Décembre 2007 - Disclaimer

ORBIFLY MET'MAP TEAM :

Programmation & Développement : Alexandra Zaïnal
Sur une idée originale de : Baudouin d'Aumeries
Assistance à la programmation : Marc-Olivier Méhu
Soutien technique & logistique : Manuel Goepfert

Contact : metmap@orbifly.com




SOURCES & CREDITS :

   NOAA